Avent, Mississippi
Current Conditions -  °F | °C
As of 2:53 PM on Saturday 25 Oct 2014 (Local Time) from KHBG Reporting Station
Clear Clear  
Wind Chill: 27°   Ceiling: Unl
Heat Index: 27°   Visibility: 10mi
Dew Point: 14°   Wind: 6mph
Humidity: 45%   Direction: 360°N
Pressure: 30.08"   Gusts: NA
Location:  31.0532°N, 88.8084°W
Report Text: KHBG 251953Z AUTO 36005KT 10SM CLR 27/14 A3008 RMK AO2 SLP183 T02670139
Loading
Personal Weather Stations






























Interactive Weather Map
Tropical Storm Tracking
New forecast layout! Learn more

10-Day Weather Forecast

Advertisements
Track Severe Weather on mobile